sensor_id;sensor_type;location;lat;lon;timestamp;pressure;altitude;pressure_sealevel;temperature;humidity
10618;BME280;5356;43.526;26.534;2023-04-05T00:00:20;98614.91;;;5.36;100.00
10618;BME280;5356;43.526;26.534;2023-04-05T00:02:46;98613.50;;;5.34;100.00
10618;BME280;5356;43.526;26.534;2023-04-05T00:05:11;98607.19;;;5.22;100.00
10618;BME280;5356;43.526;26.534;2023-04-05T00:07:37;98613.09;;;5.24;100.00
10618;BME280;5356;43.526;26.534;2023-04-05T00:10:03;98613.09;;;5.30;100.00
10618;BME280;5356;43.526;26.534;2023-04-05T00:12:28;98614.53;;;5.39;100.00
10618;BME280;5356;43.526;26.534;2023-04-05T00:14:54;98614.91;;;5.36;100.00
10618;BME280;5356;43.526;26.534;2023-04-05T00:17:20;98614.91;;;5.36;100.00
10618;BME280;5356;43.526;26.534;2023-04-05T00:19:46;98618.75;;;5.27;100.00
10618;BME280;5356;43.526;26.534;2023-04-05T00:22:15;98615.50;;;5.25;100.00
10618;BME280;5356;43.526;26.534;2023-04-05T00:24:49;98617.38;;;5.38;100.00
10618;BME280;5356;43.526;26.534;2023-04-05T00:27:15;98613.72;;;5.39;100.00
10618;BME280;5356;43.526;26.534;2023-04-05T00:29:40;98603.38;;;5.51;100.00
10618;BME280;5356;43.526;26.534;2023-04-05T00:32:06;98603.19;;;5.59;100.00
10618;BME280;5356;43.526;26.534;2023-04-05T00:34:31;98601.56;;;5.58;100.00
10618;BME280;5356;43.526;26.534;2023-04-05T00:36:58;98594.44;;;5.58;100.00
10618;BME280;5356;43.526;26.534;2023-04-05T00:39:23;98585.88;;;5.63;100.00
10618;BME280;5356;43.526;26.534;2023-04-05T00:41:49;98585.69;;;5.65;100.00
10618;BME280;5356;43.526;26.534;2023-04-05T00:44:15;98589.13;;;5.72;100.00
10618;BME280;5356;43.526;26.534;2023-04-05T00:46:40;98588.75;;;5.75;100.00
10618;BME280;5356;43.526;26.534;2023-04-05T00:49:06;98586.91;;;5.69;100.00
10618;BME280;5356;43.526;26.534;2023-04-05T00:51:32;98584.28;;;5.62;100.00
10618;BME280;5356;43.526;26.534;2023-04-05T00:54:00;98585.28;;;5.68;100.00
10618;BME280;5356;43.526;26.534;2023-04-05T00:56:26;98578.78;;;5.70;100.00
10618;BME280;5356;43.526;26.534;2023-04-05T00:58:52;98581.84;;;5.74;100.00
10618;BME280;5356;43.526;26.534;2023-04-05T01:01:19;98571.47;;;5.85;100.00
10618;BME280;5356;43.526;26.534;2023-04-05T01:03:57;98570.66;;;5.85;100.00
10618;BME280;5356;43.526;26.534;2023-04-05T01:09:36;98571.66;;;5.77;100.00
10618;BME280;5356;43.526;26.534;2023-04-05T01:12:08;98572.69;;;5.83;100.00
10618;BME280;5356;43.526;26.534;2023-04-05T01:14:49;98570.66;;;5.92;100.00
10618;BME280;5356;43.526;26.534;2023-04-05T01:17:20;98569.25;;;5.89;100.00
10618;BME280;5356;43.526;26.534;2023-04-05T01:19:52;98570.66;;;5.85;100.00
10618;BME280;5356;43.526;26.534;2023-04-05T01:30:41;98571.72;;;5.97;100.00
10618;BME280;5356;43.526;26.534;2023-04-05T01:35:50;98572.28;;;5.93;100.00
10618;BME280;5356;43.526;26.534;2023-04-05T01:38:18;98569.84;;;5.91;100.00
10618;BME280;5356;43.526;26.534;2023-04-05T01:40:46;98583.47;;;5.88;100.00
10618;BME280;5356;43.526;26.534;2023-04-05T01:43:13;98580.41;;;5.91;100.00
10618;BME280;5356;43.526;26.534;2023-04-05T01:45:40;98574.13;;;5.92;100.00
10618;BME280;5356;43.526;26.534;2023-04-05T01:48:06;98575.53;;;5.88;100.00
10618;BME280;5356;43.526;26.534;2023-04-05T01:50:31;98581.03;;;5.87;100.00
10618;BME280;5356;43.526;26.534;2023-04-05T01:52:57;98577.56;;;5.73;100.00
10618;BME280;5356;43.526;26.534;2023-04-05T01:55:22;98581.84;;;5.60;100.00
10618;BME280;5356;43.526;26.534;2023-04-05T01:57:48;98580.19;;;5.59;100.00
10618;BME280;5356;43.526;26.534;2023-04-05T02:00:13;98585.91;;;5.56;100.00
10618;BME280;5356;43.526;26.534;2023-04-05T02:02:39;98588.75;;;5.55;100.00
10618;BME280;5356;43.526;26.534;2023-04-05T02:05:05;98586.31;;;5.67;100.00
10618;BME280;5356;43.526;26.534;2023-04-05T02:10:03;98588.16;;;5.73;100.00
10618;BME280;5356;43.526;26.534;2023-04-05T02:12:31;98587.13;;;5.74;100.00
10618;BME280;5356;43.526;26.534;2023-04-05T02:14:59;98592.81;;;5.71;100.00
10618;BME280;5356;43.526;26.534;2023-04-05T02:17:25;98591.16;;;5.63;100.00
10618;BME280;5356;43.526;26.534;2023-04-05T02:20:00;98595.06;;;5.60;100.00
10618;BME280;5356;43.526;26.534;2023-04-05T02:22:37;98600.72;;;5.57;100.00
10618;BME280;5356;43.526;26.534;2023-04-05T02:25:07;98593.22;;;5.68;100.00
10618;BME280;5356;43.526;26.534;2023-04-05T02:27:34;98605.81;;;5.66;100.00
10618;BME280;5356;43.526;26.534;2023-04-05T02:29:59;98594.66;;;5.63;100.00
10618;BME280;5356;43.526;26.534;2023-04-05T02:32:25;98605.63;;;5.60;100.00
10618;BME280;5356;43.526;26.534;2023-04-05T02:34:50;98601.13;;;5.54;100.00
10618;BME280;5356;43.526;26.534;2023-04-05T02:37:18;98608.66;;;5.51;100.00
10618;BME280;5356;43.526;26.534;2023-04-05T02:39:43;98601.97;;;5.55;100.00
10618;BME280;5356;43.526;26.534;2023-04-05T02:42:12;98601.34;;;5.59;100.00
10618;BME280;5356;43.526;26.534;2023-04-05T02:44:37;98602.38;;;5.58;100.00
10618;BME280;5356;43.526;26.534;2023-04-05T02:47:03;98603.56;;;5.56;100.00
10618;BME280;5356;43.526;26.534;2023-04-05T02:49:28;98603.56;;;5.62;100.00
10618;BME280;5356;43.526;26.534;2023-04-05T02:51:54;98605.63;;;5.67;100.00
10618;BME280;5356;43.526;26.534;2023-04-05T02:54:20;98607.06;;;5.70;100.00
10618;BME280;5356;43.526;26.534;2023-04-05T02:56:46;98609.28;;;5.73;100.00
10618;BME280;5356;43.526;26.534;2023-04-05T02:59:15;98609.69;;;5.70;100.00
10618;BME280;5356;43.526;26.534;2023-04-05T03:01:45;98605.22;;;5.63;100.00
10618;BME280;5356;43.526;26.534;2023-04-05T03:04:11;98605.22;;;5.63;100.00
10618;BME280;5356;43.526;26.534;2023-04-05T03:06:37;98608.84;;;5.62;100.00
10618;BME280;5356;43.526;26.534;2023-04-05T03:09:03;98603.97;;;5.66;100.00
10618;BME280;5356;43.526;26.534;2023-04-05T03:11:29;98612.53;;;5.61;100.00
10618;BME280;5356;43.526;26.534;2023-04-05T03:13:55;98604.78;;;5.60;100.00
10618;BME280;5356;43.526;26.534;2023-04-05T03:16:21;98606.22;;;5.62;100.00
10618;BME280;5356;43.526;26.534;2023-04-05T03:18:47;98604.81;;;5.67;100.00
10618;BME280;5356;43.526;26.534;2023-04-05T03:21:13;98606.84;;;5.65;100.00
10618;BME280;5356;43.526;26.534;2023-04-05T03:23:42;98599.53;;;5.67;100.00
10618;BME280;5356;43.526;26.534;2023-04-05T03:26:11;98603.38;;;5.64;100.00
10618;BME280;5356;43.526;26.534;2023-04-05T03:28:37;98604.59;;;5.61;100.00
10618;BME280;5356;43.526;26.534;2023-04-05T03:31:02;98608.47;;;5.59;100.00
10618;BME280;5356;43.526;26.534;2023-04-05T03:33:28;98603.34;;;5.57;100.00
10618;BME280;5356;43.526;26.534;2023-04-05T03:35:53;98604.19;;;5.58;100.00
10618;BME280;5356;43.526;26.534;2023-04-05T03:38:19;98610.50;;;5.63;100.00
10618;BME280;5356;43.526;26.534;2023-04-05T03:40:45;98610.91;;;5.67;100.00
10618;BME280;5356;43.526;26.534;2023-04-05T03:43:11;98611.31;;;5.71;100.00
10618;BME280;5356;43.526;26.534;2023-04-05T03:45:36;98611.72;;;5.68;100.00
10618;BME280;5356;43.526;26.534;2023-04-05T03:48:02;98607.06;;;5.70;100.00
10618;BME280;5356;43.526;26.534;2023-04-05T03:50:28;98608.47;;;5.72;100.00
10618;BME280;5356;43.526;26.534;2023-04-05T03:52:54;98612.53;;;5.75;100.00
10618;BME280;5356;43.526;26.534;2023-04-05T03:55:19;98612.31;;;5.76;100.00
10618;BME280;5356;43.526;26.534;2023-04-05T03:57:46;98612.13;;;5.71;100.00
10618;BME280;5356;43.526;26.534;2023-04-05T04:00:12;98610.91;;;5.67;100.00
10618;BME280;5356;43.526;26.534;2023-04-05T04:02:42;98613.34;;;5.69;100.00
10618;BME280;5356;43.526;26.534;2023-04-05T04:05:08;98609.69;;;5.76;100.00
10618;BME280;5356;43.526;26.534;2023-04-05T04:07:33;98610.28;;;5.85;100.00
10618;BME280;5356;43.526;26.534;2023-04-05T04:09:59;98621.06;;;5.90;100.00
10618;BME280;5356;43.526;26.534;2023-04-05T04:12:24;98616.59;;;5.91;100.00
10618;BME280;5356;43.526;26.534;2023-04-05T04:14:53;98609.31;;;5.86;100.00
10618;BME280;5356;43.526;26.534;2023-04-05T04:17:32;98611.31;;;5.91;100.00
10618;BME280;5356;43.526;26.534;2023-04-05T04:19:58;98620.47;;;5.88;100.00
10618;BME280;5356;43.526;26.534;2023-04-05T04:22:26;98617.41;;;5.84;100.00
10618;BME280;5356;43.526;26.534;2023-04-05T04:25:00;98614.38;;;5.88;100.00
10618;BME280;5356;43.526;26.534;2023-04-05T04:27:28;98618.25;;;5.98;100.00
10618;BME280;5356;43.526;26.534;2023-04-05T04:29:54;98615.81;;;6.03;100.00
10618;BME280;5356;43.526;26.534;2023-04-05T04:32:27;98617.03;;;5.94;100.00
10618;BME280;5356;43.526;26.534;2023-04-05T04:35:15;98605.66;;;5.94;100.00
10618;BME280;5356;43.526;26.534;2023-04-05T04:37:46;98618.06;;;5.93;100.00
10618;BME280;5356;43.526;26.534;2023-04-05T04:40:13;98616.25;;;6.00;100.00
10618;BME280;5356;43.526;26.534;2023-04-05T04:42:44;98624.97;;;6.01;100.00
10618;BME280;5356;43.526;26.534;2023-04-05T04:45:17;98620.91;;;5.98;100.00
10618;BME280;5356;43.526;26.534;2023-04-05T04:47:44;98624.78;;;5.96;100.00
10618;BME280;5356;43.526;26.534;2023-04-05T04:50:11;98623.72;;;5.90;100.00
10618;BME280;5356;43.526;26.534;2023-04-05T04:52:38;98623.72;;;5.90;100.00
10618;BME280;5356;43.526;26.534;2023-04-05T04:55:06;98623.91;;;5.89;100.00
10618;BME280;5356;43.526;26.534;2023-04-05T04:57:32;98625.16;;;5.93;100.00
10618;BME280;5356;43.526;26.534;2023-04-05T04:59:57;98623.34;;;5.93;100.00
10618;BME280;5356;43.526;26.534;2023-04-05T05:02:24;98624.13;;;5.87;100.00
10618;BME280;5356;43.526;26.534;2023-04-05T05:04:50;98620.88;;;5.85;100.00
10618;BME280;5356;43.526;26.534;2023-04-05T05:07:17;98622.09;;;5.82;100.00
10618;BME280;5356;43.526;26.534;2023-04-05T05:09:43;98628.00;;;5.78;100.00
10618;BME280;5356;43.526;26.534;2023-04-05T05:12:08;98624.91;;;5.74;100.00
10618;BME280;5356;43.526;26.534;2023-04-05T05:14:34;98623.13;;;5.75;100.00
10618;BME280;5356;43.526;26.534;2023-04-05T05:16:59;98624.53;;;5.71;100.00
10618;BME280;5356;43.526;26.534;2023-04-05T05:19:25;98628.19;;;5.76;100.00
10618;BME280;5356;43.526;26.534;2023-04-05T05:21:51;98622.72;;;5.78;100.00
10618;BME280;5356;43.526;26.534;2023-04-05T05:24:18;98624.50;;;5.77;100.00
10618;BME280;5356;43.526;26.534;2023-04-05T05:26:44;98620.84;;;5.65;100.00
10618;BME280;5356;43.526;26.534;2023-04-05T05:29:09;98616.59;;;5.71;100.00
10618;BME280;5356;43.526;26.534;2023-04-05T05:31:35;98620.84;;;5.72;100.00
10618;BME280;5356;43.526;26.534;2023-04-05T05:34:01;98618.22;;;5.65;100.00
10618;BME280;5356;43.526;26.534;2023-04-05T05:36:26;98621.25;;;5.55;100.00
10618;BME280;5356;43.526;26.534;2023-04-05T05:38:52;98619.81;;;5.46;100.00
10618;BME280;5356;43.526;26.534;2023-04-05T05:41:18;98619.00;;;5.39;100.00
10618;BME280;5356;43.526;26.534;2023-04-05T05:43:44;98628.31;;;5.35;100.00
10618;BME280;5356;43.526;26.534;2023-04-05T05:46:09;98635.88;;;5.38;100.00
10618;BME280;5356;43.526;26.534;2023-04-05T05:48:35;98633.00;;;5.33;100.00
10618;BME280;5356;43.526;26.534;2023-04-05T05:51:01;98631.56;;;5.24;100.00
10618;BME280;5356;43.526;26.534;2023-04-05T05:53:27;98637.84;;;5.29;100.00
10618;BME280;5356;43.526;26.534;2023-04-05T05:55:53;98635.03;;;5.31;100.00
10618;BME280;5356;43.526;26.534;2023-04-05T05:58:19;98643.75;;;5.31;100.00
10618;BME280;5356;43.526;26.534;2023-04-05T06:00:44;98646.78;;;5.35;100.00
10618;BME280;5356;43.526;26.534;2023-04-05T06:03:11;98648.44;;;5.36;100.00
10618;BME280;5356;43.526;26.534;2023-04-05T06:05:37;98641.91;;;5.32;100.00
10618;BME280;5356;43.526;26.534;2023-04-05T06:08:03;98649.44;;;5.35;100.00
10618;BME280;5356;43.526;26.534;2023-04-05T06:10:29;98651.47;;;5.33;100.00
10618;BME280;5356;43.526;26.534;2023-04-05T06:12:55;98653.50;;;5.31;100.00
10618;BME280;5356;43.526;26.534;2023-04-05T06:15:20;98651.25;;;5.28;100.00
10618;BME280;5356;43.526;26.534;2023-04-05T06:17:46;98651.88;;;5.30;100.00
10618;BME280;5356;43.526;26.534;2023-04-05T06:20:11;98649.88;;;5.38;100.00
10618;BME280;5356;43.526;26.534;2023-04-05T06:22:38;98657.41;;;5.42;100.00
10618;BME280;5356;43.526;26.534;2023-04-05T06:25:06;98653.31;;;5.39;100.00
10618;BME280;5356;43.526;26.534;2023-04-05T06:27:32;98660.63;;;5.37;100.00
10618;BME280;5356;43.526;26.534;2023-04-05T06:30:00;98662.47;;;5.36;100.00
10618;BME280;5356;43.526;26.534;2023-04-05T06:32:26;98667.56;;;5.38;100.00
10618;BME280;5356;43.526;26.534;2023-04-05T06:34:51;98664.91;;;5.38;100.00
10618;BME280;5356;43.526;26.534;2023-04-05T06:37:17;98672.22;;;5.36;100.00
10618;BME280;5356;43.526;26.534;2023-04-05T06:39:43;98678.47;;;5.28;100.00
10618;BME280;5356;43.526;26.534;2023-04-05T06:42:08;98674.81;;;5.29;100.00
10618;BME280;5356;43.526;26.534;2023-04-05T06:44:34;98684.56;;;5.22;100.00
10618;BME280;5356;43.526;26.534;2023-04-05T06:46:59;98687.59;;;5.26;100.00
10618;BME280;5356;43.526;26.534;2023-04-05T06:49:25;98679.28;;;5.29;100.00
10618;BME280;5356;43.526;26.534;2023-04-05T06:51:51;98687.44;;;5.34;100.00
10618;BME280;5356;43.526;26.534;2023-04-05T06:54:16;98678.28;;;5.30;100.00
10618;BME280;5356;43.526;26.534;2023-04-05T06:56:42;98680.94;;;5.30;100.00
10618;BME280;5356;43.526;26.534;2023-04-05T06:59:07;98684.78;;;5.34;100.00
10618;BME280;5356;43.526;26.534;2023-04-05T07:01:33;98685.81;;;5.33;100.00
10618;BME280;5356;43.526;26.534;2023-04-05T07:03:59;98684.41;;;5.37;100.00
10618;BME280;5356;43.526;26.534;2023-04-05T07:06:25;98694.34;;;5.35;100.00
10618;BME280;5356;43.526;26.534;2023-04-05T07:08:50;98687.03;;;5.30;100.00
10618;BME280;5356;43.526;26.534;2023-04-05T07:11:16;98696.59;;;5.38;100.00
10618;BME280;5356;43.526;26.534;2023-04-05T07:13:42;98686.06;;;5.45;100.00
10618;BME280;5356;43.526;26.534;2023-04-05T07:16:07;98692.16;;;5.52;100.00
10618;BME280;5356;43.526;26.534;2023-04-05T07:18:33;98687.50;;;5.54;100.00
10618;BME280;5356;43.526;26.534;2023-04-05T07:20:58;98694.63;;;5.60;100.00
10618;BME280;5356;43.526;26.534;2023-04-05T07:23:28;98699.50;;;5.63;100.00
10618;BME280;5356;43.526;26.534;2023-04-05T07:25:56;98690.53;;;5.57;100.00
10618;BME280;5356;43.526;26.534;2023-04-05T07:28:23;98700.13;;;5.58;100.00
10618;BME280;5356;43.526;26.534;2023-04-05T07:30:49;98693.81;;;5.59;100.00
10618;BME280;5356;43.526;26.534;2023-04-05T07:33:14;98696.66;;;5.65;100.00
10618;BME280;5356;43.526;26.534;2023-04-05T07:35:40;98693.22;;;5.64;100.00
10618;BME280;5356;43.526;26.534;2023-04-05T07:38:08;98691.59;;;5.70;100.00
10618;BME280;5356;43.526;26.534;2023-04-05T07:40:35;98699.13;;;5.79;100.00
10618;BME280;5356;43.526;26.534;2023-04-05T07:43:01;98691.00;;;5.81;100.00
10618;BME280;5356;43.526;26.534;2023-04-05T07:45:26;98694.69;;;5.87;100.00
10618;BME280;5356;43.526;26.534;2023-04-05T07:47:55;98702.47;;;5.95;100.00
10618;BME280;5356;43.526;26.534;2023-04-05T07:50:20;98700.84;;;6.00;100.00
10618;BME280;5356;43.526;26.534;2023-04-05T07:52:46;98703.28;;;6.15;100.00
10618;BME280;5356;43.526;26.534;2023-04-05T07:55:11;98698.78;;;6.22;100.00
10618;BME280;5356;43.526;26.534;2023-04-05T07:57:37;98707.75;;;6.35;100.00
10618;BME280;5356;43.526;26.534;2023-04-05T08:00:07;98706.53;;;6.37;100.00
10618;BME280;5356;43.526;26.534;2023-04-05T08:02:37;98712.63;;;6.44;100.00
10618;BME280;5356;43.526;26.534;2023-04-05T08:05:03;98719.13;;;6.42;100.00
10618;BME280;5356;43.526;26.534;2023-04-05T08:07:28;98723.84;;;6.40;100.00
10618;BME280;5356;43.526;26.534;2023-04-05T08:09:54;98719.38;;;6.40;100.00
10618;BME280;5356;43.526;26.534;2023-04-05T08:12:22;98709.38;;;6.42;100.00
10618;BME280;5356;43.526;26.534;2023-04-05T08:14:48;98708.97;;;6.52;100.00
10618;BME280;5356;43.526;26.534;2023-04-05T08:17:19;98714.66;;;6.69;100.00
10618;BME280;5356;43.526;26.534;2023-04-05T08:19:47;98730.53;;;6.82;100.00
10618;BME280;5356;43.526;26.534;2023-04-05T08:22:17;98725.00;;;6.84;100.00
10618;BME280;5356;43.526;26.534;2023-04-05T08:24:46;98719.94;;;6.82;100.00
10618;BME280;5356;43.526;26.534;2023-04-05T08:27:21;98713.38;;;6.85;100.00
10618;BME280;5356;43.526;26.534;2023-04-05T08:29:46;98723.38;;;6.76;100.00
10618;BME280;5356;43.526;26.534;2023-04-05T08:32:20;98720.34;;;6.72;100.00
10618;BME280;5356;43.526;26.534;2023-04-05T08:34:46;98721.94;;;6.73;100.00
10618;BME280;5356;43.526;26.534;2023-04-05T08:37:14;98727.47;;;6.72;100.00
10618;BME280;5356;43.526;26.534;2023-04-05T08:39:43;98727.25;;;6.73;100.00
10618;BME280;5356;43.526;26.534;2023-04-05T08:42:17;98729.25;;;6.85;100.00
10618;BME280;5356;43.526;26.534;2023-04-05T08:44:50;98728.03;;;6.94;100.00
10618;BME280;5356;43.526;26.534;2023-04-05T08:47:22;98731.88;;;7.05;100.00
10618;BME280;5356;43.526;26.534;2023-04-05T08:49:48;98726.97;;;7.15;100.00
10618;BME280;5356;43.526;26.534;2023-04-05T08:52:24;98733.88;;;7.23;100.00
10618;BME280;5356;43.526;26.534;2023-04-05T08:55:17;98742.84;;;7.15;100.00
10618;BME280;5356;43.526;26.534;2023-04-05T08:58:11;98741.06;;;7.02;100.00
10618;BME280;5356;43.526;26.534;2023-04-05T09:00:55;98743.50;;;7.04;100.00
10618;BME280;5356;43.526;26.534;2023-04-05T09:03:34;98746.53;;;7.07;100.00
10618;BME280;5356;43.526;26.534;2023-04-05T09:06:24;98737.75;;;7.20;100.00
10618;BME280;5356;43.526;26.534;2023-04-05T09:11:54;98746.25;;;7.35;100.00
10618;BME280;5356;43.526;26.534;2023-04-05T09:14:26;98745.47;;;7.28;100.00
10618;BME280;5356;43.526;26.534;2023-04-05T09:17:03;98750.53;;;7.36;100.00
10618;BME280;5356;43.526;26.534;2023-04-05T09:22:58;98747.16;;;7.61;100.00
10618;BME280;5356;43.526;26.534;2023-04-05T09:35:06;98752.78;;;7.84;100.00
10618;BME280;5356;43.526;26.534;2023-04-05T09:37:57;98742.91;;;7.92;100.00
10618;BME280;5356;43.526;26.534;2023-04-05T09:40:23;98740.69;;;7.88;100.00
10618;BME280;5356;43.526;26.534;2023-04-05T09:42:52;98745.38;;;7.86;100.00
10618;BME280;5356;43.526;26.534;2023-04-05T09:45:18;98752.53;;;7.86;100.00
10618;BME280;5356;43.526;26.534;2023-04-05T09:48:13;98756.00;;;7.86;100.00
10618;BME280;5356;43.526;26.534;2023-04-05T09:51:06;98738.94;;;7.76;100.00
10618;BME280;5356;43.526;26.534;2023-04-05T09:57:25;98753.69;;;7.58;100.00
10618;BME280;5356;43.526;26.534;2023-04-05T10:00:15;98742.84;;;7.67;100.00
10618;BME280;5356;43.526;26.534;2023-04-05T10:02:44;98744.41;;;7.81;100.00
10618;BME280;5356;43.526;26.534;2023-04-05T10:09:12;98733.91;;;7.99;100.00
10618;BME280;5356;43.526;26.534;2023-04-05T10:35:05;98736.31;;;8.39;100.00
10618;BME280;5356;43.526;26.534;2023-04-05T10:41:59;98732.50;;;8.53;100.00
10618;BME280;5356;43.526;26.534;2023-04-05T10:59:04;98734.00;;;8.43;100.00
10618;BME280;5356;43.526;26.534;2023-04-05T11:09:27;98738.75;;;8.34;100.00
10618;BME280;5356;43.526;26.534;2023-04-05T11:16:20;98729.94;;;8.40;100.00
10618;BME280;5356;43.526;26.534;2023-04-05T11:23:20;98734.66;;;8.63;100.00
10618;BME280;5356;43.526;26.534;2023-04-05T11:26:28;98736.56;;;8.56;100.00
10618;BME280;5356;43.526;26.534;2023-04-05T11:29:51;98738.72;;;8.66;100.00
10618;BME280;5356;43.526;26.534;2023-04-05T11:32:46;98731.25;;;8.56;100.00
10618;BME280;5356;43.526;26.534;2023-04-05T11:42:34;98734.53;;;8.76;100.00
10618;BME280;5356;43.526;26.534;2023-04-05T11:49:04;98737.50;;;8.87;100.00
10618;BME280;5356;43.526;26.534;2023-04-05T11:58:24;98742.25;;;9.03;100.00
10618;BME280;5356;43.526;26.534;2023-04-05T12:01:00;98738.69;;;8.91;100.00
10618;BME280;5356;43.526;26.534;2023-04-05T12:03:33;98748.31;;;8.92;100.00
10618;BME280;5356;43.526;26.534;2023-04-05T12:06:09;98747.34;;;8.86;100.00
10618;BME280;5356;43.526;26.534;2023-04-05T12:08:45;98750.56;;;8.88;100.00
10618;BME280;5356;43.526;26.534;2023-04-05T12:11:46;98745.13;;;8.83;100.00
10618;BME280;5356;43.526;26.534;2023-04-05T12:15:14;98737.06;;;8.90;100.00
10618;BME280;5356;43.526;26.534;2023-04-05T12:17:50;98739.88;;;8.95;100.00
10618;BME280;5356;43.526;26.534;2023-04-05T12:20:32;98746.22;;;8.94;100.00
10618;BME280;5356;43.526;26.534;2023-04-05T12:23:21;98742.66;;;9.00;100.00
10618;BME280;5356;43.526;26.534;2023-04-05T12:29:14;98744.81;;;8.91;100.00
10618;BME280;5356;43.526;26.534;2023-04-05T12:35:42;98745.31;;;8.82;100.00
10618;BME280;5356;43.526;26.534;2023-04-05T12:38:26;98739.94;;;8.88;100.00
10618;BME280;5356;43.526;26.534;2023-04-05T12:41:09;98740.47;;;8.97;100.00
10618;BME280;5356;43.526;26.534;2023-04-05T12:43:49;98737.06;;;8.90;100.00
10618;BME280;5356;43.526;26.534;2023-04-05T12:47:07;98740.53;;;8.90;100.00
10618;BME280;5356;43.526;26.534;2023-04-05T12:50:30;98740.75;;;8.89;100.00
10618;BME280;5356;43.526;26.534;2023-04-05T12:56:11;98742.84;;;8.87;100.00
10618;BME280;5356;43.526;26.534;2023-04-05T12:59:24;98738.59;;;8.79;100.00
10618;BME280;5356;43.526;26.534;2023-04-05T13:02:22;98738.84;;;8.77;100.00
10618;BME280;5356;43.526;26.534;2023-04-05T13:04:48;98747.09;;;8.88;100.00
10618;BME280;5356;43.526;26.534;2023-04-05T13:07:16;98745.69;;;8.85;100.00
10618;BME280;5356;43.526;26.534;2023-04-05T13:09:45;98737.97;;;8.84;100.00
10618;BME280;5356;43.526;26.534;2023-04-05T13:12:31;98740.00;;;8.82;100.00
10618;BME280;5356;43.526;26.534;2023-04-05T13:15:08;98731.84;;;8.83;100.00
10618;BME280;5356;43.526;26.534;2023-04-05T13:17:40;98741.94;;;8.93;100.00
10618;BME280;5356;43.526;26.534;2023-04-05T13:20:23;98737.78;;;8.79;100.00
10618;BME280;5356;43.526;26.534;2023-04-05T13:23:13;98738.84;;;8.77;100.00
10618;BME280;5356;43.526;26.534;2023-04-05T13:26:03;98735.50;;;8.64;100.00
10618;BME280;5356;43.526;26.534;2023-04-05T13:28:34;98734.25;;;8.66;100.00
10618;BME280;5356;43.526;26.534;2023-04-05T13:31:18;98729.94;;;8.65;100.00
10618;BME280;5356;43.526;26.534;2023-04-05T13:33:53;98729.03;;;8.78;100.00
10618;BME280;5356;43.526;26.534;2023-04-05T13:36:24;98738.53;;;8.86;100.00
10618;BME280;5356;43.526;26.534;2023-04-05T13:38:52;98728.78;;;8.80;100.00
10618;BME280;5356;43.526;26.534;2023-04-05T13:41:21;98740.72;;;8.70;100.00
10618;BME280;5356;43.526;26.534;2023-04-05T13:44:16;98742.34;;;8.71;100.00
10618;BME280;5356;43.526;26.534;2023-04-05T13:50:27;98741.78;;;8.69;100.00
10618;BME280;5356;43.526;26.534;2023-04-05T13:53:16;98745.00;;;8.71;100.00
10618;BME280;5356;43.526;26.534;2023-04-05T13:56:09;98749.06;;;8.74;100.00
10618;BME280;5356;43.526;26.534;2023-04-05T14:02:15;98747.09;;;8.69;100.00
10618;BME280;5356;43.526;26.534;2023-04-05T14:05:02;98744.25;;;8.64;100.00
10618;BME280;5356;43.526;26.534;2023-04-05T14:08:06;98744.03;;;8.66;100.00
10618;BME280;5356;43.526;26.534;2023-04-05T14:10:44;98748.69;;;8.70;100.00
10618;BME280;5356;43.526;26.534;2023-04-05T14:14:28;98743.81;;;8.67;100.00
10618;BME280;5356;43.526;26.534;2023-04-05T14:17:19;98746.81;;;8.77;100.00
10618;BME280;5356;43.526;26.534;2023-04-05T14:20:23;98748.84;;;8.75;100.00
10618;BME280;5356;43.526;26.534;2023-04-05T14:26:35;98756.50;;;9.27;100.00
10618;BME280;5356;43.526;26.534;2023-04-05T14:43:05;98753.44;;;8.87;100.00
10618;BME280;5356;43.526;26.534;2023-04-05T14:45:54;98751.25;;;9.02;100.00
10618;BME280;5356;43.526;26.534;2023-04-05T14:48:32;98760.31;;;8.94;100.00
10618;BME280;5356;43.526;26.534;2023-04-05T14:51:36;98751.22;;;8.84;100.00
10618;BME280;5356;43.526;26.534;2023-04-05T14:58:15;98751.38;;;8.89;100.00
10618;BME280;5356;43.526;26.534;2023-04-05T15:04:05;98756.69;;;8.89;100.00
10618;BME280;5356;43.526;26.534;2023-04-05T15:16:08;98753.38;;;8.75;100.00
10618;BME280;5356;43.526;26.534;2023-04-05T15:19:16;98757.84;;;8.74;100.00
10618;BME280;5356;43.526;26.534;2023-04-05T15:22:34;98771.63;;;8.65;100.00
10618;BME280;5356;43.526;26.534;2023-04-05T15:25:20;98758.50;;;8.70;100.00
10618;BME280;5356;43.526;26.534;2023-04-05T15:27:55;98762.56;;;8.72;100.00
10618;BME280;5356;43.526;26.534;2023-04-05T15:30:31;98766.25;;;8.71;100.00
10618;BME280;5356;43.526;26.534;2023-04-05T15:36:08;98766.31;;;8.65;100.00
10618;BME280;5356;43.526;26.534;2023-04-05T15:46:14;98769.28;;;8.50;100.00
10618;BME280;5356;43.526;26.534;2023-04-05T15:48:51;98769.50;;;8.48;100.00
10618;BME280;5356;43.526;26.534;2023-04-05T15:52:11;98768.25;;;8.51;100.00
10618;BME280;5356;43.526;26.534;2023-04-05T15:55:21;98768.69;;;8.48;100.00
10618;BME280;5356;43.526;26.534;2023-04-05T16:05:18;98772.81;;;8.37;100.00
10618;BME280;5356;43.526;26.534;2023-04-05T16:14:53;98774.25;;;8.40;100.00
10618;BME280;5356;43.526;26.534;2023-04-05T16:20:41;98772.28;;;8.28;100.00
10618;BME280;5356;43.526;26.534;2023-04-05T16:23:38;98786.41;;;8.22;100.00
10618;BME280;5356;43.526;26.534;2023-04-05T16:33:28;98793.25;;;8.37;100.00
10618;BME280;5356;43.526;26.534;2023-04-05T16:57:00;98788.63;;;8.25;100.00
10618;BME280;5356;43.526;26.534;2023-04-05T17:01:11;98783.50;;;8.30;100.00
10618;BME280;5356;43.526;26.534;2023-04-05T17:03:46;98790.59;;;8.37;100.00
10618;BME280;5356;43.526;26.534;2023-04-05T17:09:41;98787.75;;;8.31;100.00
10618;BME280;5356;43.526;26.534;2023-04-05T17:22:44;98787.09;;;8.43;100.00
10618;BME280;5356;43.526;26.534;2023-04-05T17:32:00;98799.34;;;8.37;100.00
10618;BME280;5356;43.526;26.534;2023-04-05T17:35:31;98806.75;;;8.35;100.00